createdAt,value
2018-11-04T00:00:55.269Z,99.00
2018-11-04T00:03:23.351Z,99.00
2018-11-04T00:05:51.725Z,98.90
2018-11-04T00:08:19.640Z,98.90
2018-11-04T00:10:47.551Z,98.90
2018-11-04T00:13:15.756Z,99.20
2018-11-04T00:15:43.697Z,99.00
2018-11-04T00:18:11.587Z,98.80
2018-11-04T00:20:39.926Z,98.90
2018-11-04T00:23:07.813Z,98.90
2018-11-04T00:25:36.992Z,99.00
2018-11-04T00:28:05.498Z,99.20
2018-11-04T00:30:33.478Z,98.90
2018-11-04T00:33:02.019Z,99.10
2018-11-04T00:35:29.987Z,99.00
2018-11-04T00:37:57.933Z,98.80
2018-11-04T00:40:25.855Z,99.00
2018-11-04T00:42:53.858Z,99.10
2018-11-04T00:45:21.880Z,99.20
2018-11-04T00:47:50.298Z,99.20
2018-11-04T00:50:18.225Z,99.20
2018-11-04T00:52:46.098Z,99.20
2018-11-04T00:55:14.377Z,99.10
2018-11-04T00:57:42.431Z,99.40
2018-11-04T01:00:13.803Z,99.80
2018-11-04T01:02:42.535Z,99.90
2018-11-04T01:05:10.430Z,99.90
2018-11-04T01:07:38.815Z,99.80
2018-11-04T01:10:08.035Z,99.70
2018-11-04T01:12:36.003Z,99.60
2018-11-04T01:15:04.886Z,99.40
2018-11-04T01:17:32.745Z,99.50
2018-11-04T01:20:00.937Z,99.30
2018-11-04T01:22:29.131Z,99.20
2018-11-04T01:24:57.000Z,99.40
2018-11-04T01:27:24.961Z,99.20
2018-11-04T01:29:52.848Z,99.10
2018-11-04T01:32:21.212Z,99.20
2018-11-04T01:34:49.061Z,99.10
2018-11-04T01:37:17.488Z,99.20
2018-11-04T01:39:45.918Z,99.20
2018-11-04T01:42:13.839Z,99.40
2018-11-04T01:44:41.734Z,99.40
2018-11-04T01:47:09.650Z,99.20
2018-11-04T01:49:37.538Z,99.20
2018-11-04T01:52:06.101Z,99.90
2018-11-04T01:54:34.338Z,99.50
2018-11-04T01:57:02.949Z,99.50
2018-11-04T01:59:32.093Z,99.50
2018-11-04T02:01:59.960Z,99.50
2018-11-04T02:04:27.873Z,99.70
2018-11-04T02:06:56.612Z,99.60
2018-11-04T02:09:24.834Z,99.90
2018-11-04T02:11:53.998Z,99.90
2018-11-04T02:14:21.849Z,99.90
2018-11-04T02:16:49.726Z,99.70
2018-11-04T02:19:17.643Z,99.70
2018-11-04T02:21:45.548Z,99.80
2018-11-04T02:24:13.435Z,99.70
2018-11-04T02:26:41.343Z,99.80
2018-11-04T02:29:09.318Z,99.90
2018-11-04T02:31:37.220Z,99.60
2018-11-04T02:34:05.186Z,99.60
2018-11-04T02:36:33.180Z,99.40
2018-11-04T02:39:01.172Z,99.80
2018-11-04T02:41:29.077Z,99.70
2018-11-04T02:43:57.539Z,99.60
2018-11-04T02:46:26.230Z,99.40
2018-11-04T02:48:54.226Z,99.60
2018-11-04T02:51:22.229Z,99.40
2018-11-04T02:53:50.140Z,99.80
2018-11-04T02:56:18.130Z,99.30
2018-11-04T02:58:46.053Z,99.50
2018-11-04T03:01:14.613Z,99.60
2018-11-04T03:03:42.447Z,99.70
2018-11-04T03:06:10.317Z,99.40
2018-11-04T03:08:38.694Z,99.60
2018-11-04T03:11:07.180Z,99.90
2018-11-04T03:13:35.046Z,99.90
2018-11-04T03:16:02.963Z,99.90
2018-11-04T03:18:30.846Z,99.90
2018-11-04T03:20:58.682Z,99.50
2018-11-04T03:23:26.587Z,99.70
2018-11-04T03:25:54.441Z,99.60
2018-11-04T03:28:22.296Z,99.80
2018-11-04T03:30:50.132Z,99.60
2018-11-04T03:33:18.017Z,99.90
2018-11-04T03:35:45.921Z,99.70
2018-11-04T03:38:13.845Z,99.90
2018-11-04T03:40:41.867Z,99.80
2018-11-04T03:43:09.721Z,99.80
2018-11-04T03:45:37.613Z,99.80
2018-11-04T03:48:06.559Z,99.70
2018-11-04T03:50:35.237Z,99.70
2018-11-04T03:53:06.185Z,99.60
2018-11-04T03:55:34.994Z,99.40
2018-11-04T03:58:03.126Z,99.40
2018-11-04T04:00:31.648Z,99.40
2018-11-04T04:03:00.186Z,99.40
2018-11-04T04:05:28.132Z,99.50
2018-11-04T04:07:56.681Z,99.50
2018-11-04T04:10:25.123Z,99.50
2018-11-04T04:12:54.420Z,99.50
2018-11-04T04:15:23.113Z,99.60
2018-11-04T04:17:50.989Z,99.50
2018-11-04T04:20:19.690Z,99.40
2018-11-04T04:22:47.675Z,99.50
2018-11-04T04:25:15.584Z,99.50
2018-11-04T04:27:43.492Z,99.50
2018-11-04T04:30:11.774Z,99.50
2018-11-04T04:32:40.549Z,99.50
2018-11-04T04:35:09.343Z,99.40
2018-11-04T04:37:37.797Z,99.40
2018-11-04T04:40:06.725Z,99.40
2018-11-04T04:42:34.599Z,99.40
2018-11-04T04:45:02.504Z,99.40
2018-11-04T04:47:31.440Z,99.30
2018-11-04T04:49:59.447Z,99.40
2018-11-04T04:52:27.337Z,99.30
2018-11-04T04:54:55.218Z,99.40
2018-11-04T04:57:23.136Z,99.40
2018-11-04T04:59:51.718Z,99.40
2018-11-04T05:02:20.240Z,99.30
2018-11-04T05:04:48.153Z,99.40
2018-11-04T05:07:16.158Z,99.40
2018-11-04T05:09:44.138Z,99.40
2018-11-04T05:12:12.029Z,99.30
2018-11-04T05:14:40.612Z,99.40
2018-11-04T05:17:08.527Z,99.40
2018-11-04T05:19:36.452Z,99.50
2018-11-04T05:22:04.904Z,99.50
2018-11-04T05:24:32.799Z,99.80
2018-11-04T05:27:00.675Z,99.50
2018-11-04T05:29:28.612Z,99.80
2018-11-04T05:31:57.270Z,99.50
2018-11-04T05:34:25.220Z,99.30
2018-11-04T05:36:53.273Z,99.40
2018-11-04T05:39:21.146Z,99.30
2018-11-04T05:41:49.811Z,99.40
2018-11-04T05:44:17.693Z,99.50
2018-11-04T05:46:47.885Z,99.20
2018-11-04T05:49:15.769Z,99.60
2018-11-04T05:51:43.956Z,99.60
2018-11-04T05:54:11.844Z,99.50
2018-11-04T05:56:39.766Z,99.40
2018-11-04T05:59:07.677Z,99.40
2018-11-04T06:01:35.551Z,99.40
2018-11-04T06:04:03.417Z,99.40
2018-11-04T06:06:31.300Z,99.30
2018-11-04T06:08:59.510Z,99.40
2018-11-04T06:11:27.366Z,99.40
2018-11-04T06:13:56.103Z,99.60
2018-11-04T06:16:23.987Z,99.60
2018-11-04T06:18:51.896Z,99.60
2018-11-04T06:21:19.803Z,99.50
2018-11-04T06:23:47.687Z,99.80
2018-11-04T06:26:16.177Z,99.90
2018-11-04T06:28:44.051Z,99.90
2018-11-04T06:31:11.959Z,99.90
2018-11-04T06:33:39.840Z,99.90
2018-11-04T06:36:07.701Z,99.90
2018-11-04T06:38:36.076Z,99.90
2018-11-04T06:41:04.037Z,99.90
2018-11-04T06:43:31.913Z,99.90
2018-11-04T06:46:00.322Z,99.90
2018-11-04T06:48:28.168Z,99.90
2018-11-04T06:50:57.450Z,99.90
2018-11-04T06:53:25.326Z,99.90
2018-11-04T06:55:53.205Z,99.90
2018-11-04T06:58:21.603Z,99.90
2018-11-04T07:00:49.474Z,99.80
2018-11-04T07:03:18.166Z,99.90
2018-11-04T07:05:46.062Z,99.90
2018-11-04T07:08:13.959Z,99.90
2018-11-04T07:10:42.143Z,99.80
2018-11-04T07:13:10.025Z,99.90
2018-11-04T07:15:37.925Z,99.90
2018-11-04T07:18:06.169Z,99.90
2018-11-04T07:20:34.840Z,99.90
2018-11-04T07:23:03.572Z,99.90
2018-11-04T07:25:31.521Z,99.90
2018-11-04T07:28:00.056Z,99.90
2018-11-04T07:30:28.442Z,99.90
2018-11-04T07:32:56.334Z,99.90
2018-11-04T07:35:24.247Z,99.90
2018-11-04T07:37:52.222Z,99.90
2018-11-04T07:40:21.138Z,99.90
2018-11-04T07:42:49.072Z,99.90
2018-11-04T07:45:16.949Z,99.90
2018-11-04T07:47:44.803Z,99.90
2018-11-04T07:50:14.248Z,99.90
2018-11-04T07:52:43.551Z,99.90
2018-11-04T07:55:11.557Z,99.90
2018-11-04T07:57:41.155Z,99.90
2018-11-04T08:00:12.294Z,99.90
2018-11-04T08:02:40.554Z,99.90
2018-11-04T08:05:09.855Z,99.90
2018-11-04T08:07:38.733Z,99.90
2018-11-04T08:10:08.805Z,99.90
2018-11-04T08:12:36.727Z,99.90
2018-11-04T08:15:04.870Z,99.90
2018-11-04T08:17:33.706Z,99.90
2018-11-04T08:20:01.603Z,99.90
2018-11-04T08:22:29.527Z,99.90
2018-11-04T08:24:57.694Z,99.90
2018-11-04T08:27:26.111Z,99.90
2018-11-04T08:29:55.759Z,99.90
2018-11-04T08:32:24.172Z,99.90
2018-11-04T08:34:52.249Z,99.90
2018-11-04T08:37:20.141Z,99.90
2018-11-04T08:39:48.226Z,99.90
2018-11-04T08:42:16.107Z,99.90
2018-11-04T08:44:44.614Z,99.90
2018-11-04T08:47:12.522Z,99.90
2018-11-04T08:49:40.486Z,99.80
2018-11-04T08:52:08.505Z,99.90
2018-11-04T08:54:36.423Z,99.90
2018-11-04T08:57:04.454Z,99.90
2018-11-04T08:59:32.318Z,99.90
2018-11-04T09:02:00.529Z,99.30
2018-11-04T09:04:28.448Z,99.50
2018-11-04T09:06:56.375Z,99.60
2018-11-04T09:09:24.337Z,99.50
2018-11-04T09:11:52.221Z,99.40
2018-11-04T09:14:20.624Z,99.10
2018-11-04T09:16:48.495Z,98.70
2018-11-04T09:19:16.718Z,99.40
2018-11-04T09:21:45.744Z,98.70
2018-11-04T09:24:13.958Z,99.20
2018-11-04T09:26:41.880Z,99.30
2018-11-04T09:29:09.796Z,99.10
2018-11-04T09:31:37.744Z,99.00
2018-11-04T09:34:05.677Z,99.10
2018-11-04T09:36:33.708Z,99.00
2018-11-04T09:39:01.719Z,99.40
2018-11-04T09:41:29.656Z,99.20
2018-11-04T09:43:57.620Z,99.30
2018-11-04T09:46:25.556Z,99.30
2018-11-04T09:48:54.332Z,99.00
2018-11-04T09:51:22.941Z,99.60
2018-11-04T09:53:50.974Z,99.40
2018-11-04T09:56:19.907Z,99.60
2018-11-04T09:58:47.904Z,99.90
2018-11-04T10:01:15.770Z,99.80
2018-11-04T10:03:43.738Z,99.90
2018-11-04T10:06:11.619Z,99.90
2018-11-04T10:08:39.795Z,99.90
2018-11-04T10:11:07.646Z,99.90
2018-11-04T10:13:35.588Z,99.90
2018-11-04T10:16:03.529Z,99.90
2018-11-04T10:18:31.482Z,99.90
2018-11-04T10:20:59.802Z,99.60
2018-11-04T10:23:27.376Z,99.90
2018-11-04T10:25:56.175Z,99.90
2018-11-04T10:28:24.064Z,99.90
2018-11-04T10:30:51.961Z,99.70
2018-11-04T10:33:19.812Z,99.30
2018-11-04T10:35:48.667Z,99.50
2018-11-04T10:38:17.201Z,99.80
2018-11-04T10:40:45.349Z,99.30
2018-11-04T10:43:14.224Z,99.30
2018-11-04T10:45:42.169Z,99.80
2018-11-04T10:48:10.053Z,99.60
2018-11-04T10:50:38.001Z,99.90
2018-11-04T10:53:05.887Z,99.90
2018-11-04T10:55:33.824Z,99.90
2018-11-04T10:58:01.747Z,99.60
2018-11-04T11:00:37.291Z,99.80
2018-11-04T11:03:05.190Z,99.20
2018-11-04T11:05:33.414Z,99.10
2018-11-04T11:08:01.712Z,99.20
2018-11-04T11:10:29.651Z,99.30
2018-11-04T11:12:57.546Z,99.30
2018-11-04T11:15:25.426Z,99.20
2018-11-04T11:17:53.285Z,99.00
2018-11-04T11:20:21.900Z,98.90
2018-11-04T11:22:49.994Z,98.70
2018-11-04T11:25:17.884Z,98.90
2018-11-04T11:27:45.794Z,99.00
2018-11-04T11:30:14.624Z,98.60
2018-11-04T11:32:42.423Z,99.40
2018-11-04T11:35:11.105Z,99.20
2018-11-04T11:37:39.034Z,98.70
2018-11-04T11:40:07.978Z,99.30
2018-11-04T11:42:36.055Z,98.80
2018-11-04T11:45:04.491Z,98.60
2018-11-04T11:47:32.428Z,98.60
2018-11-04T11:50:00.425Z,98.40
2018-11-04T11:52:28.362Z,98.30
2018-11-04T11:54:56.377Z,99.10
2018-11-04T11:57:24.363Z,99.00
2018-11-04T11:59:52.547Z,98.80
2018-11-04T12:02:20.478Z,98.50
2018-11-04T12:04:48.277Z,98.30
2018-11-04T12:07:16.776Z,98.60
2018-11-04T12:09:45.607Z,98.70
2018-11-04T12:12:13.522Z,98.70
2018-11-04T12:14:41.398Z,98.80
2018-11-04T12:17:09.298Z,98.60
2018-11-04T12:19:37.234Z,99.00
2018-11-04T12:22:05.139Z,99.00
2018-11-04T12:24:33.008Z,99.10
2018-11-04T12:27:00.914Z,98.80
2018-11-04T12:29:29.747Z,99.20
2018-11-04T12:31:58.331Z,99.30
2018-11-04T12:34:26.921Z,99.80
2018-11-04T12:36:54.834Z,99.70
2018-11-04T12:39:22.762Z,99.50
2018-11-04T12:41:51.493Z,99.90
2018-11-04T12:44:19.348Z,99.90
2018-11-04T12:46:47.379Z,99.60
2018-11-04T12:49:15.322Z,99.80
2018-11-04T12:51:43.235Z,99.90
2018-11-04T12:54:12.048Z,99.90
2018-11-04T12:56:39.923Z,99.80
2018-11-04T12:59:07.983Z,99.90
2018-11-04T13:01:36.140Z,99.50
2018-11-04T13:04:04.143Z,99.40
2018-11-04T13:06:32.064Z,99.00
2018-11-04T13:08:59.941Z,99.00
2018-11-04T13:11:27.848Z,99.40
2018-11-04T13:13:56.386Z,99.30
2018-11-04T13:16:24.822Z,99.20
2018-11-04T13:18:52.659Z,99.20
2018-11-04T13:21:21.553Z,99.30
2018-11-04T13:23:51.034Z,99.20
2018-11-04T13:26:23.463Z,99.20
2018-11-04T13:28:58.046Z,99.10
2018-11-04T13:31:25.953Z,99.00
2018-11-04T13:33:53.776Z,99.00
2018-11-04T13:36:21.666Z,99.00
2018-11-04T13:38:49.548Z,99.00
2018-11-04T13:41:17.708Z,99.30
2018-11-04T13:43:45.623Z,99.20
2018-11-04T13:46:13.677Z,99.00
2018-11-04T13:48:41.635Z,99.30
2018-11-04T13:51:10.225Z,99.50
2018-11-04T13:53:38.123Z,99.60
2018-11-04T13:56:06.062Z,99.40
2018-11-04T13:58:33.963Z,99.30
2018-11-04T14:01:01.895Z,99.50
2018-11-04T14:03:29.817Z,99.70
2018-11-04T14:05:58.000Z,99.70
2018-11-04T14:08:27.252Z,99.90
2018-11-04T14:10:55.125Z,99.90
2018-11-04T14:13:23.092Z,99.90
2018-11-04T14:15:50.973Z,99.60
2018-11-04T14:18:18.873Z,99.50
2018-11-04T14:20:46.811Z,99.40
2018-11-04T14:23:14.708Z,99.20
2018-11-04T14:25:42.972Z,99.40
2018-11-04T14:28:10.863Z,99.90
2018-11-04T14:30:38.749Z,99.70
2018-11-04T14:33:06.619Z,99.90
2018-11-04T14:35:35.182Z,99.70
2018-11-04T14:38:03.239Z,99.40
2018-11-04T14:40:31.571Z,99.20
2018-11-04T14:42:59.651Z,99.20
2018-11-04T14:45:30.255Z,99.80
2018-11-04T14:47:58.712Z,99.90
2018-11-04T14:50:28.727Z,99.90
2018-11-04T14:52:58.244Z,99.90
2018-11-04T14:55:30.149Z,99.90
2018-11-04T14:57:58.147Z,99.80
2018-11-04T15:00:26.541Z,99.70
2018-11-04T15:02:55.871Z,99.50
2018-11-04T15:05:23.954Z,99.70
2018-11-04T15:07:52.393Z,99.80
2018-11-04T15:10:20.615Z,99.90
2018-11-04T15:12:49.054Z,99.90
2018-11-04T15:15:17.633Z,99.90
2018-11-04T15:17:47.362Z,99.90
2018-11-04T15:20:16.743Z,99.90
2018-11-04T15:22:48.739Z,99.90
2018-11-04T15:25:19.469Z,99.90
2018-11-04T15:27:50.948Z,99.90
2018-11-04T15:30:19.290Z,99.90
2018-11-04T15:32:48.201Z,99.90
2018-11-04T15:35:17.452Z,99.90
2018-11-04T15:37:46.920Z,99.90
2018-11-04T15:40:16.501Z,99.90
2018-11-04T15:42:44.654Z,99.90
2018-11-04T15:45:13.752Z,99.90
2018-11-04T15:47:42.225Z,99.90
2018-11-04T15:50:12.915Z,99.90
2018-11-04T15:52:42.979Z,99.90
2018-11-04T15:55:11.777Z,99.90
2018-11-04T15:57:40.461Z,99.90
2018-11-04T16:00:12.086Z,99.90
2018-11-04T16:02:40.406Z,99.90
2018-11-04T16:05:10.745Z,99.90
2018-11-04T16:07:40.041Z,99.90
2018-11-04T16:10:11.142Z,99.90
2018-11-04T16:12:39.965Z,99.90
2018-11-04T16:15:11.751Z,99.90
2018-11-04T16:17:42.171Z,99.90
2018-11-04T16:20:14.709Z,99.90
2018-11-04T16:22:45.655Z,99.90
2018-11-04T16:25:15.172Z,99.90
2018-11-04T16:27:46.194Z,99.90
2018-11-04T16:30:15.236Z,99.90
2018-11-04T16:32:44.076Z,99.90
2018-11-04T16:35:13.163Z,99.90
2018-11-04T16:37:45.810Z,99.90
2018-11-04T16:40:15.362Z,99.90
2018-11-04T16:42:44.490Z,99.90
2018-11-04T16:45:14.697Z,99.90
2018-11-04T16:47:45.090Z,99.90
2018-11-04T16:50:14.825Z,99.90
2018-11-04T16:52:45.343Z,99.90
2018-11-04T16:55:14.848Z,99.90
2018-11-04T16:57:43.736Z,99.90
2018-11-04T17:00:15.186Z,99.90
2018-11-04T17:02:44.084Z,99.90
2018-11-04T17:05:13.592Z,99.90
2018-11-04T17:07:43.699Z,99.90
2018-11-04T17:10:19.512Z,99.90
2018-11-04T17:12:51.370Z,99.90
2018-11-04T17:15:25.963Z,99.90
2018-11-04T17:17:56.518Z,99.90
2018-11-04T17:20:26.082Z,99.90
2018-11-04T17:22:54.322Z,99.90
2018-11-04T17:25:23.241Z,99.90
2018-11-04T17:27:52.121Z,99.90
2018-11-04T17:30:21.136Z,99.90
2018-11-04T17:32:50.584Z,99.90
2018-11-04T17:35:19.529Z,99.90
2018-11-04T17:37:50.025Z,99.90
2018-11-04T17:40:18.784Z,99.90
2018-11-04T17:42:48.842Z,99.90
2018-11-04T17:45:17.615Z,99.90
2018-11-04T17:47:47.450Z,99.90
2018-11-04T17:50:18.047Z,99.90
2018-11-04T17:52:48.022Z,99.90
2018-11-04T17:55:16.799Z,99.90
2018-11-04T17:57:45.889Z,99.90
2018-11-04T18:00:18.021Z,99.90
2018-11-04T18:02:47.360Z,99.90
2018-11-04T18:05:15.647Z,99.90
2018-11-04T18:07:45.590Z,99.90
2018-11-04T18:10:15.098Z,99.90
2018-11-04T18:12:44.714Z,99.90
2018-11-04T18:15:14.462Z,99.90
2018-11-04T18:17:44.799Z,99.90
2018-11-04T18:20:14.046Z,99.90
2018-11-04T18:22:44.231Z,99.90
2018-11-04T18:25:13.624Z,99.90
2018-11-04T18:27:43.631Z,99.90
2018-11-04T18:30:15.491Z,99.90
2018-11-04T18:32:45.462Z,99.90
2018-11-04T18:35:15.368Z,99.90
2018-11-04T18:37:46.693Z,99.90
2018-11-04T18:40:16.891Z,99.90
2018-11-04T18:45:15.783Z,99.90
2018-11-04T18:47:45.802Z,99.90
2018-11-04T18:50:16.451Z,99.90
2018-11-04T18:52:45.961Z,99.90
2018-11-04T18:55:15.208Z,99.90
2018-11-04T18:57:44.392Z,99.90
2018-11-04T19:00:16.712Z,99.90
2018-11-04T19:02:47.522Z,99.80
2018-11-04T19:05:16.035Z,99.80
2018-11-04T19:07:46.814Z,99.60
2018-11-04T19:10:16.918Z,99.90
2018-11-04T19:12:45.604Z,99.90
2018-11-04T19:15:14.988Z,99.90
2018-11-04T19:17:43.571Z,99.80
2018-11-04T19:20:13.897Z,99.70
2018-11-04T19:22:44.577Z,99.80
2018-11-04T19:25:14.265Z,99.70
2018-11-04T19:27:43.547Z,99.50
2018-11-04T19:30:14.891Z,99.70
2018-11-04T19:32:44.404Z,99.40
2018-11-04T19:35:14.211Z,99.40
2018-11-04T19:37:43.203Z,99.90
2018-11-04T19:40:15.278Z,99.90
2018-11-04T19:42:44.204Z,99.90
2018-11-04T19:45:12.536Z,99.90
2018-11-04T19:47:42.140Z,99.90
2018-11-04T19:50:11.676Z,99.90
2018-11-04T19:52:42.147Z,99.90
2018-11-04T19:55:11.773Z,99.70
2018-11-04T19:57:41.036Z,99.70
2018-11-04T20:00:10.373Z,99.80
2018-11-04T20:02:38.921Z,99.70
2018-11-04T20:05:08.814Z,99.80
2018-11-04T20:07:39.219Z,99.80
2018-11-04T20:10:09.862Z,99.50
2018-11-04T20:12:44.619Z,99.30
2018-11-04T20:15:13.061Z,99.20
2018-11-04T20:17:44.199Z,99.50
2018-11-04T20:20:17.186Z,99.20
2018-11-04T20:22:47.094Z,99.10
2018-11-04T20:25:22.411Z,99.20
2018-11-04T20:27:50.497Z,99.10
2018-11-04T20:30:20.163Z,98.90
2018-11-04T20:32:54.605Z,98.90
2018-11-04T20:35:23.473Z,99.10
2018-11-04T20:37:52.569Z,98.90
2018-11-04T20:41:29.410Z,99.20
2018-11-04T20:44:00.251Z,99.20
2018-11-04T20:46:28.835Z,99.30
2018-11-04T20:49:04.270Z,99.40
2018-11-04T20:51:33.627Z,99.40
2018-11-04T20:54:02.874Z,99.30
2018-11-04T20:56:37.831Z,99.20
2018-11-04T20:59:06.585Z,98.90
2018-11-04T21:01:35.026Z,99.00
2018-11-04T21:04:04.989Z,99.40
2018-11-04T21:06:33.772Z,99.10
2018-11-04T21:09:03.021Z,99.00
2018-11-04T21:11:32.634Z,98.90
2018-11-04T21:14:03.557Z,98.80
2018-11-04T21:16:32.497Z,98.80
2018-11-04T21:19:01.302Z,98.80
2018-11-04T21:21:31.735Z,98.70
2018-11-04T21:24:00.383Z,98.90
2018-11-04T21:26:28.623Z,98.90
2018-11-04T21:28:57.060Z,98.70
2018-11-04T21:31:47.027Z,98.60
2018-11-04T21:34:22.294Z,98.40
2018-11-04T21:36:50.955Z,98.70
2018-11-04T21:39:20.258Z,98.60
2018-11-04T21:41:49.711Z,98.50
2018-11-04T21:44:18.479Z,98.40
2018-11-04T21:46:46.746Z,98.50
2018-11-04T21:49:14.625Z,98.70
2018-11-04T21:51:42.525Z,98.80
2018-11-04T21:54:11.288Z,98.70
2018-11-04T21:56:40.778Z,98.70
2018-11-04T21:59:08.300Z,98.60
2018-11-04T22:01:36.513Z,98.60
2018-11-04T22:04:04.567Z,98.70
2018-11-04T22:06:32.375Z,98.80
2018-11-04T22:09:17.936Z,99.00
2018-11-04T22:11:52.802Z,99.10
2018-11-04T22:14:20.705Z,98.80
2018-11-04T22:16:48.909Z,98.90
2018-11-04T22:19:17.081Z,98.80
2018-11-04T22:21:45.299Z,98.60
2018-11-04T22:24:13.233Z,98.60
2018-11-04T22:26:41.698Z,98.50
2018-11-04T22:29:10.036Z,98.50
2018-11-04T22:31:38.461Z,98.80
2018-11-04T22:34:11.701Z,98.80
2018-11-04T22:36:39.904Z,98.70
2018-11-04T22:39:08.712Z,98.70
2018-11-04T22:41:36.690Z,98.60
2018-11-04T22:44:05.172Z,98.80
2018-11-04T22:46:33.797Z,98.80
2018-11-04T22:49:01.706Z,98.80
2018-11-04T22:51:30.181Z,98.80
2018-11-04T22:53:58.271Z,98.70
2018-11-04T22:56:26.848Z,99.30
2018-11-04T22:58:54.708Z,99.10
2018-11-04T23:01:22.741Z,99.20
2018-11-04T23:03:51.008Z,99.10
2018-11-04T23:06:18.860Z,98.80
2018-11-04T23:08:46.738Z,98.80
2018-11-04T23:11:14.704Z,98.80
2018-11-04T23:13:43.219Z,98.70
2018-11-04T23:16:11.124Z,98.60
2018-11-04T23:18:39.084Z,98.50
2018-11-04T23:21:06.962Z,98.50
2018-11-04T23:23:34.875Z,98.60
2018-11-04T23:26:02.850Z,98.70
2018-11-04T23:28:30.755Z,98.80
2018-11-04T23:30:58.631Z,98.50
2018-11-04T23:33:26.480Z,99.10
2018-11-04T23:35:54.415Z,98.90
2018-11-04T23:38:22.302Z,98.70
2018-11-04T23:40:50.504Z,98.60
2018-11-04T23:43:19.056Z,98.50
2018-11-04T23:45:46.974Z,98.30
2018-11-04T23:48:14.839Z,98.30
2018-11-04T23:50:42.721Z,98.60
2018-11-04T23:53:10.568Z,98.40
2018-11-04T23:55:38.435Z,98.30
2018-11-04T23:58:09.457Z,98.30
